Time,TemperatureF,DewpointF,PressureIn,WindDirection,WindDirectionDegrees,WindSpeedMPH,WindSpeedGustMPH,Humidity,HourlyPrecipIn,Conditions,Clouds,dailyrainin,SoftwareType,DateUTC
2013-02-09 00:02:00,28.0,19.0,-100.00,West,275,12.0,16.0,71,0.02,,,-99.99,,2013-02-09 05:02:00,
2013-02-09 00:12:00,28.0,19.0,-100.00,NW,305,11.0,14.0,70,0.02,,,-99.99,,2013-02-09 05:12:00,
2013-02-09 00:22:00,28.0,19.0,-100.00,NW,305,11.0,14.0,70,0.02,,,-99.99,,2013-02-09 05:22:00,
2013-02-09 00:32:00,28.0,19.0,-100.00,WNW,295,6.0,14.0,71,0.01,,,-99.99,,2013-02-09 05:32:00,
2013-02-09 00:42:00,27.0,19.0,-100.00,West,280,7.0,12.0,72,0.01,,,-99.99,,2013-02-09 05:42:00,
2013-02-09 00:52:00,27.0,19.0,-100.00,West,280,7.0,12.0,72,0.01,,,-99.99,,2013-02-09 05:52:00,
2013-02-09 01:02:00,27.0,19.0,-100.00,West,270,9.0,23.0,72,0.01,,,-99.99,,2013-02-09 06:02:00,
2013-02-09 01:11:00,27.0,19.0,-100.00,West,280,6.0,11.0,71,0.00,,,-99.99,,2013-02-09 06:11:00,
2013-02-09 01:21:00,27.0,19.0,-100.00,West,275,9.0,13.0,72,0.01,,,-99.99,,2013-02-09 06:21:00,
2013-02-09 01:32:00,27.0,19.0,-100.00,West,275,9.0,13.0,72,0.01,,,-99.99,,2013-02-09 06:32:00,
2013-02-09 01:42:00,27.0,19.0,-100.00,WNW,295,16.0,23.0,71,0.02,,,-99.99,,2013-02-09 06:42:00,
2013-02-09 01:51:00,27.0,19.0,-100.00,WNW,295,16.0,23.0,71,0.02,,,-99.99,,2013-02-09 06:51:00,
2013-02-09 02:01:00,27.0,19.0,-100.00,West,275,13.0,17.0,71,0.01,,,-99.99,,2013-02-09 07:01:00,
2013-02-09 02:11:00,27.0,18.0,-100.00,NW,305,11.0,15.0,71,0.00,,,-99.99,,2013-02-09 07:11:00,
2013-02-09 02:21:00,27.0,18.0,-100.00,NW,305,11.0,15.0,71,0.00,,,-99.99,,2013-02-09 07:21:00,
2013-02-09 02:32:00,27.0,18.0,-100.00,WNW,290,13.0,21.0,70,0.00,,,-99.99,,2013-02-09 07:32:00,
2013-02-09 02:42:00,27.0,18.0,-100.00,West,265,15.0,19.0,68,0.00,,,-99.99,,2013-02-09 07:42:00,
2013-02-09 02:51:00,27.0,18.0,-100.00,WSW,250,8.0,12.0,68,0.00,,,-99.99,,2013-02-09 07:51:00,
2013-02-09 03:01:00,27.0,18.0,-100.00,WSW,250,8.0,12.0,68,0.00,,,-99.99,,2013-02-09 08:01:00,
2013-02-09 03:11:00,27.0,17.0,-100.00,West,280,11.0,20.0,68,0.00,,,-99.99,,2013-02-09 08:11:00,
2013-02-09 03:21:00,27.0,17.0,-100.00,West,280,11.0,20.0,68,0.00,,,-99.99,,2013-02-09 08:21:00,
2013-02-09 03:32:00,27.0,16.0,-100.00,NW,315,16.0,21.0,65,0.00,,,-99.99,,2013-02-09 08:32:00,
2013-02-09 03:42:00,27.0,16.0,-100.00,WNW,295,8.0,14.0,64,0.00,,,-99.99,,2013-02-09 08:42:00,
2013-02-09 03:52:00,26.0,16.0,-100.00,West,275,17.0,23.0,64,0.00,,,-99.99,,2013-02-09 08:52:00,
2013-02-09 04:03:00,26.0,16.0,-100.00,West,275,17.0,23.0,64,0.00,,,-99.99,,2013-02-09 09:03:00,
2013-02-09 04:11:00,26.0,15.0,-100.00,West,275,9.0,15.0,64,0.00,,,-99.99,,2013-02-09 09:11:00,
2013-02-09 04:21:00,26.0,15.0,-100.00,West,275,9.0,15.0,64,0.00,,,-99.99,,2013-02-09 09:21:00,
2013-02-09 04:32:00,26.0,15.0,-100.00,West,275,6.0,13.0,64,0.00,,,-99.99,,2013-02-09 09:32:00,
2013-02-09 04:42:00,26.0,15.0,-100.00,West,275,21.0,26.0,63,0.00,,,-99.99,,2013-02-09 09:42:00,
2013-02-09 04:51:00,26.0,15.0,-100.00,West,275,21.0,26.0,63,0.00,,,-99.99,,2013-02-09 09:51:00,
2013-02-09 05:01:00,25.0,14.0,-100.00,WNW,290,11.0,23.0,63,0.00,,,-99.99,,2013-02-09 10:01:00,
2013-02-09 05:32:00,24.0,14.0,-100.00,West,275,20.0,29.0,64,0.00,,,-99.99,,2013-02-09 10:32:00,
2013-02-09 05:42:00,24.0,14.0,-100.00,NW,305,11.0,15.0,65,0.00,,,-99.99,,2013-02-09 10:42:00,
2013-02-09 05:51:00,24.0,14.0,-100.00,NW,305,11.0,15.0,65,0.00,,,-99.99,,2013-02-09 10:51:00,
2013-02-09 06:01:00,24.0,14.0,-100.00,West,260,10.0,16.0,66,0.00,,,-99.99,,2013-02-09 11:01:00,
2013-02-09 06:11:00,24.0,14.0,-100.00,West,265,12.0,22.0,66,0.00,,,-99.99,,2013-02-09 11:11:00,
2013-02-09 06:22:00,24.0,14.0,-100.00,West,265,12.0,22.0,66,0.00,,,-99.99,,2013-02-09 11:22:00,
2013-02-09 06:32:00,24.0,14.0,-100.00,SE,145,4.0,9.0,66,0.00,,,-99.99,,2013-02-09 11:32:00,
2013-02-09 06:42:00,23.0,14.0,-100.00,ESE,110,6.0,11.0,66,0.00,,,-99.99,,2013-02-09 11:42:00,
2013-02-09 06:52:00,23.0,14.0,-100.00,NE,45,2.0,4.0,67,0.00,,,-99.99,,2013-02-09 11:52:00,
2013-02-09 07:02:00,23.0,14.0,-100.00,NE,45,2.0,4.0,67,0.00,,,-99.99,,2013-02-09 12:02:00,
2013-02-09 07:11:00,23.0,13.0,-100.00,SE,140,7.0,10.0,66,0.00,,,-99.99,,2013-02-09 12:11:00,
2013-02-09 07:21:00,23.0,14.0,-100.00,SE,135,9.0,13.0,66,0.00,,,-99.99,,2013-02-09 12:21:00,
2013-02-09 07:32:00,23.0,14.0,-100.00,SE,135,9.0,13.0,66,0.00,,,-99.99,,2013-02-09 12:32:00,
2013-02-09 07:42:00,24.0,14.0,-100.00,SE,145,9.0,11.0,66,0.00,,,-99.99,,2013-02-09 12:42:00,
2013-02-09 07:52:00,24.0,14.0,-100.00,SE,125,11.0,14.0,66,0.00,,,-99.99,,2013-02-09 12:52:00,
2013-02-09 08:02:00,24.0,14.0,-100.00,SE,125,11.0,14.0,66,0.00,,,-99.99,,2013-02-09 13:02:00,
2013-02-09 08:11:00,24.0,14.0,-100.00,ESE,120,10.0,12.0,66,0.00,,,-99.99,,2013-02-09 13:11:00,
2013-02-09 08:22:00,24.0,14.0,-100.00,SE,130,7.0,9.0,65,0.00,,,-99.99,,2013-02-09 13:22:00,
2013-02-09 08:32:00,24.0,14.0,-100.00,SE,130,7.0,9.0,65,0.00,,,-99.99,,2013-02-09 13:32:00,
2013-02-09 08:42:00,24.0,14.0,-100.00,SE,130,2.0,4.0,65,0.00,,,-99.99,,2013-02-09 13:42:00,
2013-02-09 08:52:00,24.0,14.0,-100.00,SE,130,2.0,4.0,65,0.00,,,-99.99,,2013-02-09 13:52:00,
2013-02-09 09:01:00,26.0,14.0,-100.00,South,170,6.0,8.0,62,0.00,,,-99.99,,2013-02-09 14:01:00,
2013-02-09 09:11:00,27.0,15.0,-100.00,SSW,195,4.0,6.0,60,0.00,,,-99.99,,2013-02-09 14:11:00,
2013-02-09 09:21:00,27.0,15.0,-100.00,SSW,195,4.0,6.0,60,0.00,,,-99.99,,2013-02-09 14:21:00,
2013-02-09 09:32:00,27.0,15.0,-100.00,ESE,120,2.0,6.0,59,0.00,,,-99.99,,2013-02-09 14:32:00,
2013-02-09 09:42:00,29.0,15.0,-100.00,South,180,3.0,4.0,56,0.00,,,-99.99,,2013-02-09 14:42:00,
2013-02-09 09:52:00,29.0,14.0,-100.00,SSE,150,4.0,8.0,53,0.00,,,-99.99,,2013-02-09 14:52:00,
2013-02-09 10:02:00,29.0,14.0,-100.00,SSE,150,4.0,8.0,53,0.00,,,-99.99,,2013-02-09 15:02:00,
2013-02-09 10:11:00,28.0,13.0,-100.00,West,270,11.0,22.0,54,0.00,,,-99.99,,2013-02-09 15:11:00,
2013-02-09 10:21:00,28.0,13.0,-100.00,West,270,11.0,22.0,54,0.00,,,-99.99,,2013-02-09 15:21:00,
2013-02-09 10:32:00,28.0,13.0,-100.00,West,270,11.0,22.0,54,0.00,,,-99.99,,2013-02-09 15:32:00,
2013-02-09 10:42:00,28.0,13.0,-100.00,West,275,6.0,9.0,53,0.00,,,-99.99,,2013-02-09 15:42:00,
2013-02-09 10:51:00,29.0,14.0,-100.00,South,170,1.0,2.0,52,0.00,,,-99.99,,2013-02-09 15:51:00,
2013-02-09 11:01:00,29.0,14.0,-100.00,South,170,1.0,2.0,52,0.00,,,-99.99,,2013-02-09 16:01:00,
2013-02-09 11:11:00,30.0,14.0,-100.00,NNW,335,3.0,6.0,51,0.00,,,-99.99,,2013-02-09 16:11:00,
2013-02-09 11:22:00,30.0,14.0,-100.00,NNW,335,3.0,6.0,51,0.00,,,-99.99,,2013-02-09 16:22:00,
2013-02-09 11:32:00,28.0,13.0,-100.00,WNW,290,10.0,16.0,52,0.00,,,-99.99,,2013-02-09 16:32:00,
2013-02-09 11:42:00,29.0,13.0,-100.00,West,275,4.0,7.0,51,0.00,,,-99.99,,2013-02-09 16:42:00,
2013-02-09 11:52:00,29.0,13.0,-100.00,West,275,4.0,7.0,51,0.00,,,-99.99,,2013-02-09 16:52:00,
2013-02-09 12:01:00,29.0,13.0,-100.00,NW,310,11.0,16.0,50,0.00,,,-99.99,,2013-02-09 17:01:00,
2013-02-09 12:11:00,30.0,13.0,-100.00,West,270,7.0,11.0,48,0.00,,,-99.99,,2013-02-09 17:11:00,
2013-02-09 12:21:00,30.0,13.0,-100.00,West,270,7.0,11.0,48,0.00,,,-99.99,,2013-02-09 17:21:00,
2013-02-09 12:32:00,30.0,12.0,-100.00,SSW,210,5.0,11.0,48,0.00,,,-99.99,,2013-02-09 17:32:00,
2013-02-09 12:42:00,30.0,-18.0,-100.00,NNW,335,4.0,8.0,11,0.00,,,-99.99,,2013-02-09 17:42:00,
2013-02-09 12:52:00,30.0,-18.0,-100.00,NNW,335,4.0,8.0,11,0.00,,,-99.99,,2013-02-09 17:52:00,
2013-02-09 13:02:00,31.0,12.0,-100.00,NW,305,4.0,9.0,45,0.00,,,-99.99,,2013-02-09 18:02:00,
2013-02-09 13:12:00,31.0,-18.0,-100.00,West,275,9.0,12.0,11,0.00,,,-99.99,,2013-02-09 18:12:00,
2013-02-09 13:23:00,31.0,-18.0,-100.00,West,275,9.0,12.0,11,0.00,,,-99.99,,2013-02-09 18:23:00,
2013-02-09 13:32:00,32.0,-19.0,-100.00,SE,130,4.0,7.0,10,0.00,,,-99.99,,2013-02-09 18:32:00,
2013-02-09 13:42:00,32.0,12.0,-100.00,West,275,5.0,7.0,44,0.00,,,-99.99,,2013-02-09 18:42:00,
2013-02-09 13:52:00,32.0,12.0,-100.00,West,275,5.0,7.0,44,0.00,,,-99.99,,2013-02-09 18:52:00,
2013-02-09 14:02:00,31.0,12.0,-100.00,North,0,7.0,11.0,44,0.00,,,-99.99,,2013-02-09 19:02:00,
2013-02-09 14:11:00,31.0,-17.0,-100.00,WNW,290,8.0,13.0,11,0.00,,,-99.99,,2013-02-09 19:11:00,
2013-02-09 14:22:00,31.0,-17.0,-100.00,WNW,290,8.0,13.0,11,0.00,,,-99.99,,2013-02-09 19:22:00,
2013-02-09 14:32:00,32.0,10.0,-100.00,West,275,7.0,17.0,41,0.00,,,-99.99,,2013-02-09 19:32:00,
2013-02-09 14:42:00,32.0,11.0,-100.00,NNE,20,4.0,8.0,42,0.00,,,-99.99,,2013-02-09 19:42:00,
2013-02-09 14:52:00,32.0,11.0,-100.00,NNE,20,4.0,8.0,42,0.00,,,-99.99,,2013-02-09 19:52:00,
2013-02-09 15:02:00,32.0,11.0,-100.00,South,185,4.0,6.0,41,0.00,,,-99.99,,2013-02-09 20:02:00,
2013-02-09 15:11:00,32.0,11.0,-100.00,SE,125,2.0,4.0,41,0.00,,,-99.99,,2013-02-09 20:11:00,
2013-02-09 15:21:00,32.0,11.0,-100.00,SE,125,2.0,4.0,41,0.00,,,-99.99,,2013-02-09 20:21:00,
2013-02-09 15:32:00,32.0,11.0,-100.00,SSW,205,4.0,7.0,40,0.00,,,-99.99,,2013-02-09 20:32:00,
2013-02-09 15:42:00,32.0,11.0,-100.00,SSE,155,1.0,2.0,41,0.00,,,-99.99,,2013-02-09 20:42:00,
2013-02-09 15:52:00,32.0,11.0,-100.00,SSE,155,1.0,2.0,41,0.00,,,-99.99,,2013-02-09 20:52:00,
2013-02-09 16:02:00,32.0,11.0,-100.00,NW,320,1.0,2.0,41,0.00,,,-99.99,,2013-02-09 21:02:00,
2013-02-09 16:11:00,33.0,11.0,-100.00,WSW,245,2.0,4.0,41,0.00,,,-99.99,,2013-02-09 21:11:00,
2013-02-09 16:21:00,33.0,11.0,-100.00,WSW,245,2.0,4.0,41,0.00,,,-99.99,,2013-02-09 21:21:00,
2013-02-09 16:32:00,32.0,10.0,-100.00,West,265,9.0,12.0,39,0.00,,,-99.99,,2013-02-09 21:32:00,
2013-02-09 16:42:00,32.0,10.0,-100.00,NW,310,7.0,9.0,39,0.00,,,-99.99,,2013-02-09 21:42:00,
2013-02-09 16:52:00,32.0,10.0,-100.00,NW,310,7.0,9.0,39,0.00,,,-99.99,,2013-02-09 21:52:00,
2013-02-09 17:01:00,32.0,10.0,-100.00,West,260,6.0,7.0,39,0.00,,,-99.99,,2013-02-09 22:01:00,
2013-02-09 17:11:00,32.0,9.0,-100.00,West,275,13.0,17.0,38,0.00,,,-99.99,,2013-02-09 22:11:00,
2013-02-09 17:21:00,32.0,9.0,-100.00,West,275,13.0,17.0,38,0.00,,,-99.99,,2013-02-09 22:21:00,
2013-02-09 17:32:00,32.0,-17.0,-100.00,West,265,7.0,10.0,11,0.00,,,-99.99,,2013-02-09 22:32:00,
2013-02-09 17:42:00,32.0,9.0,-100.00,WNW,285,3.0,6.0,39,0.00,,,-99.99,,2013-02-09 22:42:00,
2013-02-09 17:52:00,32.0,9.0,-100.00,WNW,285,3.0,6.0,39,0.00,,,-99.99,,2013-02-09 22:52:00,
2013-02-09 18:02:00,31.0,9.0,-100.00,West,265,3.0,4.0,40,0.00,,,-99.99,,2013-02-09 23:02:00,
2013-02-09 18:11:00,31.0,9.0,-100.00,West,280,4.0,6.0,40,0.00,,,-99.99,,2013-02-09 23:11:00,
2013-02-09 18:21:00,31.0,9.0,-100.00,West,280,4.0,6.0,40,0.00,,,-99.99,,2013-02-09 23:21:00,
2013-02-09 18:32:00,31.0,9.0,-100.00,WNW,295,9.0,11.0,41,0.00,,,-99.99,,2013-02-09 23:32:00,
2013-02-09 18:42:00,30.0,10.0,-100.00,WNW,285,12.0,16.0,42,0.00,,,-99.99,,2013-02-09 23:42:00,
2013-02-09 18:52:00,30.0,10.0,-100.00,WNW,285,12.0,16.0,42,0.00,,,-99.99,,2013-02-09 23:52:00,
2013-02-09 19:02:00,30.0,10.0,-100.00,WNW,285,13.0,16.0,42,0.00,,,-99.99,,2013-02-10 00:02:00,
2013-02-09 19:12:00,30.0,10.0,-100.00,WNW,285,13.0,16.0,43,0.00,,,-99.99,,2013-02-10 00:12:00,
2013-02-09 19:22:00,30.0,10.0,-100.00,WNW,285,13.0,16.0,43,0.00,,,-99.99,,2013-02-10 00:22:00,
2013-02-09 19:32:00,29.0,10.0,-100.00,West,275,2.0,6.0,44,0.00,,,-99.99,,2013-02-10 00:32:00,
2013-02-09 19:42:00,29.0,10.0,-100.00,West,265,2.0,3.0,45,0.00,,,-99.99,,2013-02-10 00:42:00,
2013-02-09 19:51:00,29.0,10.0,-100.00,West,265,2.0,3.0,45,0.00,,,-99.99,,2013-02-10 00:51:00,
2013-02-09 20:01:00,30.0,11.0,-100.00,West,275,7.0,11.0,45,0.00,,,-99.99,,2013-02-10 01:01:00,
2013-02-09 20:12:00,29.0,11.0,-100.00,North,5,2.0,4.0,46,0.00,,,-99.99,,2013-02-10 01:12:00,
2013-02-09 20:22:00,29.0,11.0,-100.00,NW,320,0.0,0.0,46,0.00,,,-99.99,,2013-02-10 01:22:00,
2013-02-09 20:32:00,29.0,11.0,-100.00,NW,320,0.0,0.0,46,0.00,,,-99.99,,2013-02-10 01:32:00,
2013-02-09 20:42:00,28.0,10.0,-100.00,SSE,155,1.0,1.0,47,0.00,,,-99.99,,2013-02-10 01:42:00,
2013-02-09 20:51:00,28.0,10.0,-100.00,SSE,155,1.0,1.0,47,0.00,,,-99.99,,2013-02-10 01:51:00,
2013-02-09 21:01:00,27.0,-22.0,-100.00,SW,220,1.0,1.0,10,-99.99,,,-99.99,,2013-02-10 02:01:00,
2013-02-09 21:11:00,27.0,11.0,-100.00,SW,215,1.0,2.0,51,0.00,,,-99.99,,2013-02-10 02:11:00,
2013-02-09 21:22:00,26.0,11.0,-100.00,WSW,250,1.0,2.0,54,0.00,,,-99.99,,2013-02-10 02:22:00,
2013-02-09 21:32:00,26.0,11.0,-100.00,WSW,250,1.0,2.0,54,0.00,,,-99.99,,2013-02-10 02:32:00,
2013-02-09 21:42:00,26.0,12.0,-100.00,West,260,4.0,5.0,55,0.00,,,-99.99,,2013-02-10 02:42:00,
2013-02-09 21:52:00,28.0,12.0,-100.00,WNW,290,5.0,6.0,52,0.00,,,-99.99,,2013-02-10 02:52:00,
2013-02-09 22:02:00,28.0,12.0,-100.00,WNW,290,5.0,6.0,52,0.00,,,-99.99,,2013-02-10 03:02:00,
2013-02-09 22:11:00,26.0,11.0,-100.00,ENE,65,0.0,1.0,52,0.00,,,-99.99,,2013-02-10 03:11:00,
2013-02-09 22:21:00,26.0,11.0,-100.00,ENE,65,0.0,1.0,52,0.00,,,-99.99,,2013-02-10 03:21:00,
2013-02-09 22:32:00,25.0,12.0,-100.00,WSW,255,2.0,3.0,57,0.00,,,-99.99,,2013-02-10 03:32:00,
2013-02-09 22:42:00,25.0,12.0,-100.00,West,275,2.0,2.0,57,0.00,,,-99.99,,2013-02-10 03:42:00,
2013-02-09 22:51:00,25.0,12.0,-100.00,West,260,2.0,2.0,57,0.00,,,-99.99,,2013-02-10 03:51:00,
2013-02-09 23:01:00,25.0,12.0,-100.00,West,260,2.0,2.0,57,0.00,,,-99.99,,2013-02-10 04:01:00,
2013-02-09 23:11:00,25.0,12.0,-100.00,SW,215,0.0,0.0,57,0.00,,,-99.99,,2013-02-10 04:11:00,
2013-02-09 23:21:00,25.0,12.0,-100.00,SW,215,0.0,0.0,57,0.00,,,-99.99,,2013-02-10 04:21:00,
2013-02-09 23:32:00,24.0,12.0,-100.00,WSW,250,2.0,2.0,59,0.00,,,-99.99,,2013-02-10 04:32:00,
2013-02-09 23:42:00,25.0,12.0,-100.00,WSW,250,0.0,1.0,58,0.00,,,-99.99,,2013-02-10 04:42:00,
2013-02-09 23:52:00,24.0,12.0,-100.00,WSW,245,1.0,2.0,60,0.00,,,-99.99,,2013-02-10 04:52:00,